createdAt,value
2017-06-01T00:00:20.971Z,25.60
2017-06-01T00:02:51.344Z,25.50
2017-06-01T00:05:21.784Z,25.40
2017-06-01T00:07:51.987Z,25.30
2017-06-01T00:10:22.445Z,25.40
2017-06-01T00:12:52.989Z,25.60
2017-06-01T00:15:23.459Z,25.40
2017-06-01T00:17:53.846Z,25.10
2017-06-01T00:20:24.184Z,25.00
2017-06-01T00:22:54.622Z,25.00
2017-06-01T00:25:23.939Z,25.00
2017-06-01T00:27:54.225Z,25.00
2017-06-01T00:30:24.859Z,24.80
2017-06-01T00:32:55.250Z,24.80
2017-06-01T00:35:26.285Z,24.90
2017-06-01T00:37:56.458Z,25.00
2017-06-01T00:40:26.926Z,25.20
2017-06-01T00:42:57.340Z,25.10
2017-06-01T00:45:26.805Z,25.10
2017-06-01T00:47:57.186Z,24.80
2017-06-01T00:50:27.811Z,24.90
2017-06-01T00:52:58.227Z,24.60
2017-06-01T00:55:28.901Z,24.30
2017-06-01T00:58:00.683Z,24.20
2017-06-01T01:00:31.004Z,24.30
2017-06-01T01:03:01.279Z,24.10
2017-06-01T01:05:31.841Z,24.00
2017-06-01T01:08:02.049Z,23.80
2017-06-01T01:10:32.280Z,23.70
2017-06-01T01:13:02.770Z,23.60
2017-06-01T01:15:33.125Z,23.50
2017-06-01T01:18:03.457Z,23.40
2017-06-01T01:20:33.763Z,23.20
2017-06-01T01:23:04.298Z,23.10
2017-06-01T01:25:34.631Z,23.10
2017-06-01T01:28:05.038Z,23.00
2017-06-01T01:30:35.622Z,23.00
2017-06-01T01:33:06.092Z,22.90
2017-06-01T01:35:36.684Z,22.60
2017-06-01T01:38:07.166Z,22.40
2017-06-01T01:40:37.521Z,22.40
2017-06-01T01:43:07.808Z,22.30
2017-06-01T01:45:38.105Z,22.10
2017-06-01T01:48:07.956Z,22.10
2017-06-01T01:50:38.284Z,21.90
2017-06-01T01:53:10.911Z,21.90
2017-06-01T01:55:40.592Z,21.90
2017-06-01T01:58:12.858Z,22.00
2017-06-01T02:00:43.115Z,21.90
2017-06-01T02:03:12.742Z,21.90
2017-06-01T02:05:43.093Z,21.90
2017-06-01T02:08:13.685Z,21.90
2017-06-01T02:10:44.087Z,21.80
2017-06-01T02:13:14.491Z,21.70
2017-06-01T02:15:44.773Z,21.70
2017-06-01T02:18:16.409Z,21.70
2017-06-01T02:20:46.940Z,21.70
2017-06-01T02:23:17.266Z,21.60
2017-06-01T02:25:47.591Z,21.70
2017-06-01T02:28:18.008Z,21.70
2017-06-01T02:30:48.423Z,21.70
2017-06-01T02:33:18.816Z,21.70
2017-06-01T02:35:49.394Z,21.60
2017-06-01T02:38:19.984Z,21.50
2017-06-01T02:40:50.318Z,21.60
2017-06-01T02:43:20.523Z,21.50
2017-06-01T02:45:50.970Z,21.40
2017-06-01T02:48:22.660Z,21.20
2017-06-01T02:50:53.140Z,21.10
2017-06-01T02:53:23.222Z,21.10
2017-06-01T02:55:53.502Z,21.10
2017-06-01T02:58:25.120Z,21.00
2017-06-01T03:00:55.858Z,21.00
2017-06-01T03:03:26.609Z,21.00
2017-06-01T03:05:57.082Z,20.90
2017-06-01T03:08:27.530Z,20.80
2017-06-01T03:10:58.048Z,20.90
2017-06-01T03:13:27.154Z,20.90
2017-06-01T03:15:56.196Z,21.00
2017-06-01T03:18:25.567Z,21.00
2017-06-01T03:20:55.397Z,21.10
2017-06-01T03:23:24.546Z,21.10
2017-06-01T03:25:55.298Z,21.10
2017-06-01T03:28:24.840Z,21.10
2017-06-01T03:30:55.312Z,21.10
2017-06-01T03:33:25.592Z,21.10
2017-06-01T03:35:56.005Z,21.10
2017-06-01T03:38:26.616Z,21.10
2017-06-01T03:40:57.428Z,20.90
2017-06-01T03:43:27.785Z,20.90
2017-06-01T03:45:57.484Z,20.90
2017-06-01T03:48:29.235Z,20.80
2017-06-01T03:50:59.881Z,20.50
2017-06-01T03:53:30.231Z,20.50
2017-06-01T03:56:00.780Z,20.30
2017-06-01T03:58:33.047Z,20.40
2017-06-01T04:01:03.784Z,20.40
2017-06-01T04:03:34.314Z,20.40
2017-06-01T04:06:06.474Z,20.30
2017-06-01T04:08:36.689Z,20.10
2017-06-01T04:11:07.020Z,20.00
2017-06-01T04:13:37.578Z,19.80
2017-06-01T04:16:11.344Z,19.70
2017-06-01T04:18:41.892Z,19.80
2017-06-01T04:21:12.299Z,20.00
2017-06-01T04:23:42.590Z,19.90
2017-06-01T04:26:13.033Z,19.90
2017-06-01T04:28:43.443Z,19.90
2017-06-01T04:31:13.354Z,19.80
2017-06-01T04:33:43.521Z,19.80
2017-06-01T04:36:13.771Z,19.80
2017-06-01T04:38:44.295Z,19.70
2017-06-01T04:41:14.653Z,19.60
2017-06-01T04:43:44.999Z,19.60
2017-06-01T04:46:15.196Z,19.60
2017-06-01T04:48:45.580Z,19.60
2017-06-01T04:51:15.855Z,19.60
2017-06-01T04:53:46.295Z,19.60
2017-06-01T04:56:16.952Z,19.60
2017-06-01T04:58:48.364Z,19.60
2017-06-01T05:01:18.777Z,19.60
2017-06-01T05:03:48.193Z,19.60
2017-06-01T05:06:18.733Z,19.60
2017-06-01T05:08:48.951Z,19.60
2017-06-01T05:11:19.523Z,19.40
2017-06-01T05:13:49.727Z,19.40
2017-06-01T05:16:20.071Z,19.40
2017-06-01T05:18:50.264Z,19.50
2017-06-01T05:21:20.570Z,19.50
2017-06-01T05:23:50.355Z,19.50
2017-06-01T05:26:20.735Z,19.60
2017-06-01T05:28:50.905Z,19.60
2017-06-01T05:31:20.523Z,19.50
2017-06-01T05:33:50.798Z,19.60
2017-06-01T05:36:21.200Z,19.60
2017-06-01T05:38:51.241Z,19.50
2017-06-01T05:41:21.929Z,19.50
2017-06-01T05:43:52.144Z,19.50
2017-06-01T05:46:22.452Z,19.60
2017-06-01T05:48:52.642Z,19.60
2017-06-01T05:51:22.971Z,19.70
2017-06-01T05:53:53.454Z,19.70
2017-06-01T05:56:22.805Z,19.70
2017-06-01T05:58:54.593Z,19.60
2017-06-01T06:01:24.856Z,19.60
2017-06-01T06:03:55.505Z,19.40
2017-06-01T06:06:25.835Z,19.10
2017-06-01T06:08:56.400Z,18.90
2017-06-01T06:11:26.677Z,18.90
2017-06-01T06:13:57.652Z,19.00
2017-06-01T06:16:27.959Z,19.00
2017-06-01T06:18:58.772Z,19.00
2017-06-01T06:21:29.025Z,18.90
2017-06-01T06:23:59.311Z,18.90
2017-06-01T06:26:29.642Z,19.00
2017-06-01T06:29:00.252Z,18.90
2017-06-01T06:31:29.953Z,18.80
2017-06-01T06:34:00.633Z,18.20
2017-06-01T06:36:31.033Z,18.10
2017-06-01T06:39:01.384Z,18.20
2017-06-01T06:41:31.756Z,18.10
2017-06-01T06:44:02.017Z,18.20
2017-06-01T06:46:32.653Z,18.10
2017-06-01T06:49:03.000Z,18.00
2017-06-01T06:51:33.506Z,18.10
2017-06-01T06:54:03.948Z,18.20
2017-06-01T06:56:34.310Z,18.30
2017-06-01T06:59:06.136Z,18.30
2017-06-01T07:01:36.556Z,18.20
2017-06-01T07:04:07.019Z,18.20
2017-06-01T07:06:37.470Z,18.30
2017-06-01T07:09:07.767Z,18.40
2017-06-01T07:11:38.287Z,18.40
2017-06-01T07:14:08.747Z,18.40
2017-06-01T07:16:39.000Z,18.50
2017-06-01T07:19:09.173Z,18.40
2017-06-01T07:21:39.578Z,18.30
2017-06-01T07:24:10.109Z,18.30
2017-06-01T07:26:40.504Z,18.20
2017-06-01T07:29:17.124Z,18.10
2017-06-01T07:31:47.520Z,18.10
2017-06-01T07:34:17.753Z,18.10
2017-06-01T07:36:48.050Z,18.10
2017-06-01T07:39:18.705Z,18.10
2017-06-01T07:41:48.960Z,18.10
2017-06-01T07:44:18.958Z,18.00
2017-06-01T07:46:49.724Z,18.00
2017-06-01T07:49:20.167Z,18.00
2017-06-01T07:51:50.336Z,18.00
2017-06-01T07:54:20.674Z,18.00
2017-06-01T07:56:50.784Z,17.90
2017-06-01T07:59:22.191Z,18.00
2017-06-01T08:01:52.408Z,18.00
2017-06-01T08:04:22.737Z,18.00
2017-06-01T08:06:53.157Z,18.00
2017-06-01T08:09:23.723Z,18.00
2017-06-01T08:11:53.904Z,18.00
2017-06-01T08:14:24.266Z,17.90
2017-06-01T08:16:54.560Z,17.90
2017-06-01T08:19:24.342Z,17.80
2017-06-01T08:21:54.749Z,17.80
2017-06-01T08:24:25.360Z,17.90
2017-06-01T08:26:55.703Z,17.90
2017-06-01T08:29:26.017Z,17.80
2017-06-01T08:31:56.625Z,17.70
2017-06-01T08:34:27.733Z,17.70
2017-06-01T08:36:58.219Z,17.60
2017-06-01T08:39:28.478Z,17.40
2017-06-01T08:41:58.756Z,17.20
2017-06-01T08:44:28.959Z,17.30
2017-06-01T08:46:59.094Z,17.30
2017-06-01T08:49:29.775Z,17.10
2017-06-01T08:52:00.242Z,17.10
2017-06-01T08:54:30.773Z,17.00
2017-06-01T08:57:01.195Z,17.10
2017-06-01T08:59:31.493Z,17.10
2017-06-01T09:02:01.985Z,17.10
2017-06-01T09:04:32.364Z,17.00
2017-06-01T09:07:02.622Z,17.00
2017-06-01T09:09:33.019Z,17.10
2017-06-01T09:12:03.588Z,17.10
2017-06-01T09:14:40.740Z,17.00
2017-06-01T09:17:11.152Z,16.90
2017-06-01T09:19:41.477Z,17.00
2017-06-01T09:22:11.192Z,16.90
2017-06-01T09:24:41.444Z,16.90
2017-06-01T09:27:11.870Z,16.90
2017-06-01T09:29:41.995Z,16.90
2017-06-01T09:32:12.277Z,16.90
2017-06-01T09:34:42.412Z,17.00
2017-06-01T09:37:12.550Z,17.00
2017-06-01T09:39:43.109Z,17.00
2017-06-01T09:42:13.573Z,17.00
2017-06-01T09:44:43.869Z,16.70
2017-06-01T09:47:13.948Z,16.80
2017-06-01T09:49:44.291Z,16.70
2017-06-01T09:52:14.802Z,16.80
2017-06-01T09:54:45.397Z,16.80
2017-06-01T09:57:15.465Z,16.80
2017-06-01T09:59:46.487Z,16.80
2017-06-01T10:02:16.846Z,16.80
2017-06-01T10:04:47.369Z,16.90
2017-06-01T10:07:17.980Z,16.90
2017-06-01T10:09:48.250Z,16.90
2017-06-01T10:12:18.478Z,17.00
2017-06-01T10:14:48.866Z,16.90
2017-06-01T10:17:19.365Z,16.90
2017-06-01T10:19:49.945Z,16.80
2017-06-01T10:22:20.548Z,16.80
2017-06-01T10:24:51.079Z,16.90
2017-06-01T10:27:21.613Z,16.90
2017-06-01T10:29:52.145Z,16.80
2017-06-01T10:32:22.563Z,16.80
2017-06-01T10:34:52.951Z,16.80
2017-06-01T10:37:23.294Z,16.80
2017-06-01T10:39:53.314Z,16.80
2017-06-01T10:42:23.715Z,16.70
2017-06-01T10:44:53.751Z,16.90
2017-06-01T10:47:24.201Z,16.90
2017-06-01T10:49:54.428Z,16.80
2017-06-01T10:52:24.849Z,16.90
2017-06-01T10:54:55.349Z,16.90
2017-06-01T10:57:25.606Z,17.00
2017-06-01T10:59:57.131Z,17.10
2017-06-01T11:02:27.764Z,17.00
2017-06-01T11:04:58.236Z,17.00
2017-06-01T11:07:28.520Z,17.00
2017-06-01T11:09:58.896Z,17.10
2017-06-01T11:12:29.237Z,17.00
2017-06-01T11:14:59.786Z,17.00
2017-06-01T11:17:30.243Z,17.00
2017-06-01T11:20:00.513Z,16.90
2017-06-01T11:22:30.833Z,16.90
2017-06-01T11:25:01.218Z,16.90
2017-06-01T11:27:31.547Z,16.90
2017-06-01T11:30:02.008Z,16.70
2017-06-01T11:32:32.486Z,16.60
2017-06-01T11:35:03.035Z,16.50
2017-06-01T11:37:33.322Z,16.60
2017-06-01T11:40:03.638Z,16.60
2017-06-01T11:42:33.808Z,16.60
2017-06-01T11:45:04.060Z,16.50
2017-06-01T11:47:34.379Z,16.50
2017-06-01T11:50:04.826Z,16.50
2017-06-01T11:52:35.170Z,16.30
2017-06-01T11:55:05.075Z,16.30
2017-06-01T11:57:35.469Z,16.30
2017-06-01T12:00:06.623Z,16.30
2017-06-01T12:02:36.972Z,16.20
2017-06-01T12:05:06.579Z,16.20
2017-06-01T12:07:37.193Z,16.30
2017-06-01T12:10:10.996Z,16.20
2017-06-01T12:12:41.261Z,16.10
2017-06-01T12:15:11.956Z,16.00
2017-06-01T12:17:42.430Z,15.90
2017-06-01T12:20:13.006Z,16.00
2017-06-01T12:22:43.403Z,16.00
2017-06-01T12:25:14.019Z,16.10
2017-06-01T12:27:44.561Z,15.90
2017-06-01T12:30:15.094Z,16.00
2017-06-01T12:32:45.498Z,15.90
2017-06-01T12:35:16.018Z,16.00
2017-06-01T12:37:45.994Z,15.90
2017-06-01T12:40:16.504Z,16.10
2017-06-01T12:42:46.670Z,16.10
2017-06-01T12:45:16.438Z,16.10
2017-06-01T12:47:47.173Z,16.20
2017-06-01T12:50:17.480Z,16.20
2017-06-01T12:52:48.000Z,16.20
2017-06-01T12:55:18.425Z,16.30
2017-06-01T12:57:48.644Z,16.30
2017-06-01T13:00:29.452Z,16.10
2017-06-01T13:02:59.823Z,16.10
2017-06-01T13:05:29.383Z,16.10
2017-06-01T13:07:59.781Z,16.10
2017-06-01T13:10:30.240Z,16.20
2017-06-01T13:13:00.761Z,16.30
2017-06-01T13:15:31.330Z,16.40
2017-06-01T13:18:01.761Z,16.30
2017-06-01T13:20:32.414Z,16.30
2017-06-01T13:23:02.619Z,16.20
2017-06-01T13:25:32.962Z,16.20
2017-06-01T13:28:03.438Z,16.40
2017-06-01T13:30:33.845Z,16.40
2017-06-01T13:33:04.303Z,16.40
2017-06-01T13:35:34.505Z,16.40
2017-06-01T13:38:04.679Z,16.40
2017-06-01T13:40:35.110Z,16.40
2017-06-01T13:43:05.678Z,16.50
2017-06-01T13:45:36.135Z,16.50
2017-06-01T13:48:06.527Z,16.40
2017-06-01T13:50:36.984Z,16.30
2017-06-01T13:53:07.353Z,16.50
2017-06-01T13:55:36.989Z,16.50
2017-06-01T13:58:07.494Z,16.60
2017-06-01T14:00:39.084Z,16.70
2017-06-01T14:03:09.370Z,16.60
2017-06-01T14:05:39.523Z,16.60
2017-06-01T14:08:09.885Z,16.50
2017-06-01T14:10:39.595Z,16.50
2017-06-01T14:13:10.151Z,16.60
2017-06-01T14:15:40.158Z,16.60
2017-06-01T14:18:10.497Z,16.60
2017-06-01T14:20:41.769Z,16.70
2017-06-01T14:23:12.103Z,16.80
2017-06-01T14:25:42.547Z,16.90
2017-06-01T14:28:13.091Z,17.00
2017-06-01T14:30:43.469Z,17.00
2017-06-01T14:33:13.822Z,17.00
2017-06-01T14:35:44.088Z,17.10
2017-06-01T14:38:15.703Z,17.00
2017-06-01T14:40:46.288Z,17.00
2017-06-01T14:43:16.413Z,17.10
2017-06-01T14:45:46.702Z,17.10
2017-06-01T14:48:16.999Z,17.10
2017-06-01T14:50:47.427Z,17.10
2017-06-01T14:53:17.257Z,17.10
2017-06-01T14:55:46.933Z,17.10
2017-06-01T14:58:17.099Z,17.30
2017-06-01T15:00:47.909Z,17.30
2017-06-01T15:03:17.942Z,17.20
2017-06-01T15:05:48.268Z,17.20
2017-06-01T15:08:18.809Z,17.30
2017-06-01T15:10:49.326Z,17.30
2017-06-01T15:13:19.671Z,17.40
2017-06-01T15:15:49.982Z,17.40
2017-06-01T15:18:20.506Z,17.40
2017-06-01T15:20:51.072Z,17.40
2017-06-01T15:23:21.466Z,17.40
2017-06-01T15:25:51.160Z,17.40
2017-06-01T15:28:21.598Z,17.70
2017-06-01T15:30:51.153Z,17.70
2017-06-01T15:33:21.617Z,17.80
2017-06-01T15:35:52.131Z,17.90
2017-06-01T15:38:22.425Z,17.90
2017-06-01T15:40:52.503Z,17.90
2017-06-01T15:43:22.363Z,18.00
2017-06-01T15:45:52.437Z,18.10
2017-06-01T15:48:22.457Z,18.10
2017-06-01T15:50:51.737Z,18.10
2017-06-01T15:53:21.864Z,18.20
2017-06-01T15:55:52.312Z,18.10
2017-06-01T15:58:22.362Z,18.30
2017-06-01T16:00:53.402Z,18.40
2017-06-01T16:03:23.633Z,18.40
2017-06-01T16:05:53.946Z,18.50
2017-06-01T16:08:23.903Z,18.40
2017-06-01T16:10:53.747Z,18.30
2017-06-01T16:13:24.127Z,18.10
2017-06-01T16:15:54.068Z,18.20
2017-06-01T16:18:24.236Z,18.20
2017-06-01T16:20:54.727Z,18.30
2017-06-01T16:23:24.616Z,18.40
2017-06-01T16:25:54.043Z,18.50
2017-06-01T16:28:24.184Z,18.60
2017-06-01T16:30:53.635Z,18.60
2017-06-01T16:33:23.842Z,19.20
2017-06-01T16:35:53.785Z,19.70
2017-06-01T16:38:23.946Z,19.90
2017-06-01T16:41:01.329Z,20.00
2017-06-01T16:43:31.776Z,20.50
2017-06-01T16:46:02.001Z,20.20
2017-06-01T16:48:32.282Z,20.30
2017-06-01T16:51:02.428Z,20.30
2017-06-01T16:53:32.752Z,20.30
2017-06-01T16:56:02.696Z,20.00
2017-06-01T16:58:32.983Z,20.00
2017-06-01T17:01:03.115Z,20.00
2017-06-01T17:03:33.446Z,20.30
2017-06-01T17:06:03.834Z,20.60
2017-06-01T17:08:34.285Z,20.70
2017-06-01T17:11:04.577Z,21.10
2017-06-01T17:13:35.096Z,21.20
2017-06-01T17:16:05.366Z,20.90
2017-06-01T17:18:35.591Z,21.10
2017-06-01T17:21:05.821Z,21.00
2017-06-01T17:23:36.129Z,20.90
2017-06-01T17:26:05.994Z,21.50
2017-06-01T17:28:36.202Z,22.50
2017-06-01T17:31:06.264Z,23.30
2017-06-01T17:33:36.854Z,24.00
2017-06-01T17:36:06.724Z,24.90
2017-06-01T17:38:36.607Z,25.50
2017-06-01T17:41:06.437Z,25.70
2017-06-01T17:43:36.668Z,25.70
2017-06-01T17:46:06.148Z,25.70
2017-06-01T17:48:36.596Z,26.80
2017-06-01T17:51:06.797Z,27.70
2017-06-01T17:53:37.215Z,28.10
2017-06-01T17:56:07.295Z,28.20
2017-06-01T17:58:37.449Z,28.60
2017-06-01T18:01:08.377Z,29.90
2017-06-01T18:03:38.731Z,29.90
2017-06-01T18:06:08.838Z,30.00
2017-06-01T18:08:39.024Z,30.70
2017-06-01T18:11:08.998Z,30.60
2017-06-01T18:13:39.194Z,31.30
2017-06-01T18:16:09.233Z,32.00
2017-06-01T18:18:39.046Z,30.20
2017-06-01T18:21:09.182Z,30.60
2017-06-01T18:23:39.166Z,31.60
2017-06-01T18:26:09.048Z,31.70
2017-06-01T18:28:39.618Z,31.20
2017-06-01T18:31:09.633Z,31.30
2017-06-01T18:33:39.412Z,31.60
2017-06-01T18:36:09.272Z,31.90
2017-06-01T18:38:39.477Z,31.50
2017-06-01T18:41:09.621Z,32.30
2017-06-01T18:43:39.888Z,31.90
2017-06-01T18:46:10.292Z,31.70
2017-06-01T18:48:40.300Z,31.30
2017-06-01T18:51:09.905Z,31.30
2017-06-01T18:53:40.003Z,31.30
2017-06-01T18:56:10.112Z,31.60
2017-06-01T18:58:40.131Z,31.80
2017-06-01T19:01:11.430Z,31.40
2017-06-01T19:03:40.757Z,31.30
2017-06-01T19:06:10.573Z,29.80
2017-06-01T19:08:40.612Z,29.80
2017-06-01T19:11:10.487Z,29.50
2017-06-01T19:13:40.576Z,29.00
2017-06-01T19:16:10.557Z,28.40
2017-06-01T19:18:40.770Z,29.20
2017-06-01T19:21:11.042Z,28.50
2017-06-01T19:23:40.316Z,28.40
2017-06-01T19:26:10.232Z,29.10
2017-06-01T19:28:40.072Z,28.80
2017-06-01T19:31:10.467Z,28.40
2017-06-01T19:33:40.527Z,28.60
2017-06-01T19:36:10.485Z,29.20
2017-06-01T19:38:40.311Z,29.20
2017-06-01T19:41:10.391Z,28.40
2017-06-01T19:43:40.426Z,27.60
2017-06-01T19:46:10.233Z,27.00
2017-06-01T19:48:40.511Z,26.90
2017-06-01T19:51:10.785Z,26.50
2017-06-01T19:53:41.249Z,26.80
2017-06-01T19:56:11.482Z,26.40
2017-06-01T19:58:41.702Z,26.30
2017-06-01T20:01:13.128Z,25.90
2017-06-01T20:03:43.245Z,25.60
2017-06-01T20:06:13.315Z,25.10
2017-06-01T20:08:43.622Z,25.30
2017-06-01T20:11:13.781Z,25.30
2017-06-01T20:13:44.168Z,25.30
2017-06-01T20:16:13.586Z,25.30
2017-06-01T20:18:43.653Z,24.80
2017-06-01T20:21:13.454Z,24.50
2017-06-01T20:23:43.777Z,24.40
2017-06-01T20:26:13.979Z,24.40
2017-06-01T20:28:44.004Z,24.20
2017-06-01T20:31:14.180Z,24.20
2017-06-01T20:33:43.944Z,24.20
2017-06-01T20:36:14.390Z,23.80
2017-06-01T20:38:44.836Z,23.80
2017-06-01T20:41:14.840Z,24.00
2017-06-01T20:43:45.121Z,23.90
2017-06-01T20:46:15.392Z,24.30
2017-06-01T20:48:45.663Z,24.60
2017-06-01T20:51:15.620Z,24.60
2017-06-01T20:53:45.575Z,24.00
2017-06-01T20:56:14.737Z,24.00
2017-06-01T20:58:44.782Z,24.60
2017-06-01T21:01:15.250Z,24.60
2017-06-01T21:03:45.354Z,24.60
2017-06-01T21:06:15.589Z,24.40
2017-06-01T21:08:46.015Z,24.70
2017-06-01T21:11:15.740Z,24.70
2017-06-01T21:13:46.025Z,24.40
2017-06-01T21:16:16.121Z,24.10
2017-06-01T21:18:46.656Z,23.80
2017-06-01T21:21:16.757Z,23.80
2017-06-01T21:23:46.689Z,24.30
2017-06-01T21:26:16.161Z,24.20
2017-06-01T21:28:46.566Z,24.40
2017-06-01T21:31:16.928Z,24.20
2017-06-01T21:33:47.419Z,24.10
2017-06-01T21:36:17.920Z,23.80
2017-06-01T21:38:48.087Z,23.80
2017-06-01T21:41:18.222Z,23.80
2017-06-01T21:43:48.261Z,23.60
2017-06-01T21:46:18.497Z,23.80
2017-06-01T21:48:48.480Z,24.10
2017-06-01T21:51:18.522Z,24.30
2017-06-01T21:53:48.162Z,24.20
2017-06-01T21:56:18.347Z,24.00
2017-06-01T21:58:48.502Z,24.00
2017-06-01T22:01:20.083Z,23.80
2017-06-01T22:03:50.365Z,23.60
2017-06-01T22:06:20.714Z,23.50
2017-06-01T22:08:50.628Z,23.30
2017-06-01T22:11:21.126Z,23.30
2017-06-01T22:13:51.239Z,23.20
2017-06-01T22:16:21.779Z,23.10
2017-06-01T22:18:52.042Z,22.80
2017-06-01T22:21:22.424Z,22.90
2017-06-01T22:23:51.810Z,22.90
2017-06-01T22:26:22.117Z,22.60
2017-06-01T22:28:52.341Z,22.70
2017-06-01T22:31:22.603Z,22.40
2017-06-01T22:33:52.975Z,22.60
2017-06-01T22:36:23.289Z,22.50
2017-06-01T22:38:53.604Z,22.60
2017-06-01T22:41:23.813Z,22.60
2017-06-01T22:43:53.312Z,22.60
2017-06-01T22:46:23.627Z,22.90
2017-06-01T22:48:54.040Z,22.90
2017-06-01T22:51:24.229Z,22.90
2017-06-01T22:53:54.543Z,23.10
2017-06-01T22:56:24.867Z,23.30
2017-06-01T22:58:54.663Z,23.30
2017-06-01T23:01:26.566Z,23.10
2017-06-01T23:03:56.498Z,22.70
2017-06-01T23:06:26.408Z,22.70
2017-06-01T23:08:56.451Z,23.00
2017-06-01T23:11:26.766Z,23.20
2017-06-01T23:13:57.242Z,23.60
2017-06-01T23:16:27.394Z,23.60
2017-06-01T23:18:57.761Z,23.40
2017-06-01T23:21:27.723Z,23.30
2017-06-01T23:23:58.010Z,23.20
2017-06-01T23:26:27.249Z,23.20
2017-06-01T23:28:57.374Z,22.80
2017-06-01T23:31:27.471Z,22.70
2017-06-01T23:33:57.539Z,22.70
2017-06-01T23:36:27.770Z,22.60
2017-06-01T23:38:57.865Z,22.60
2017-06-01T23:41:28.257Z,22.50
2017-06-01T23:43:58.544Z,22.80
2017-06-01T23:46:28.036Z,22.70
2017-06-01T23:48:58.237Z,22.50
2017-06-01T23:51:35.650Z,22.60
2017-06-01T23:54:04.848Z,22.60
2017-06-01T23:56:35.055Z,22.80
2017-06-01T23:59:05.095Z,22.70
